sensor_id;sensor_type;location;lat;lon;timestamp;temperature;humidity
34776;DHT22;20989;52.566;13.346;2022-12-18T00:02:27;20.10;46.00
34776;DHT22;20989;52.566;13.346;2022-12-18T00:05:28;20.10;46.00
34776;DHT22;20989;52.566;13.346;2022-12-18T00:08:28;20.10;46.00
34776;DHT22;20989;52.566;13.346;2022-12-18T00:11:30;20.10;46.50
34776;DHT22;20989;52.566;13.346;2022-12-18T00:14:31;20.10;46.00
34776;DHT22;20989;52.566;13.346;2022-12-18T00:17:32;20.10;46.10
34776;DHT22;20989;52.566;13.346;2022-12-18T00:20:37;20.00;46.00
34776;DHT22;20989;52.566;13.346;2022-12-18T00:23:41;20.00;46.00
34776;DHT22;20989;52.566;13.346;2022-12-18T00:26:41;20.00;46.10
34776;DHT22;20989;52.566;13.346;2022-12-18T00:29:42;20.10;46.10
34776;DHT22;20989;52.566;13.346;2022-12-18T00:32:43;20.00;46.00
34776;DHT22;20989;52.566;13.346;2022-12-18T00:35:43;20.00;46.10
34776;DHT22;20989;52.566;13.346;2022-12-18T00:38:45;20.00;46.10
34776;DHT22;20989;52.566;13.346;2022-12-18T00:41:46;20.00;46.00
34776;DHT22;20989;52.566;13.346;2022-12-18T00:45:05;20.00;46.20
34776;DHT22;20989;52.566;13.346;2022-12-18T00:48:06;20.00;46.10
34776;DHT22;20989;52.566;13.346;2022-12-18T00:51:08;20.00;46.20
34776;DHT22;20989;52.566;13.346;2022-12-18T00:54:09;19.90;46.10
34776;DHT22;20989;52.566;13.346;2022-12-18T00:57:09;20.00;46.20
34776;DHT22;20989;52.566;13.346;2022-12-18T01:00:13;20.00;46.10
34776;DHT22;20989;52.566;13.346;2022-12-18T01:03:14;20.00;46.20
34776;DHT22;20989;52.566;13.346;2022-12-18T01:06:15;20.00;46.20
34776;DHT22;20989;52.566;13.346;2022-12-18T01:09:16;19.90;46.10
34776;DHT22;20989;52.566;13.346;2022-12-18T01:12:17;20.00;46.40
34776;DHT22;20989;52.566;13.346;2022-12-18T01:15:19;20.00;46.10
34776;DHT22;20989;52.566;13.346;2022-12-18T01:18:20;20.00;46.10
34776;DHT22;20989;52.566;13.346;2022-12-18T01:21:22;20.00;46.00
34776;DHT22;20989;52.566;13.346;2022-12-18T01:24:23;20.00;46.30
34776;DHT22;20989;52.566;13.346;2022-12-18T01:27:24;20.00;46.20
34776;DHT22;20989;52.566;13.346;2022-12-18T01:30:25;20.00;45.90
34776;DHT22;20989;52.566;13.346;2022-12-18T01:33:26;20.10;46.80
34776;DHT22;20989;52.566;13.346;2022-12-18T01:36:34;20.10;46.20
34776;DHT22;20989;52.566;13.346;2022-12-18T01:39:35;20.10;46.30
34776;DHT22;20989;52.566;13.346;2022-12-18T01:42:35;20.10;46.40
34776;DHT22;20989;52.566;13.346;2022-12-18T01:45:36;20.00;46.30
34776;DHT22;20989;52.566;13.346;2022-12-18T01:48:38;20.00;46.00
34776;DHT22;20989;52.566;13.346;2022-12-18T01:51:39;20.10;46.10
34776;DHT22;20989;52.566;13.346;2022-12-18T01:54:40;20.10;46.40
34776;DHT22;20989;52.566;13.346;2022-12-18T01:57:41;20.10;46.00
34776;DHT22;20989;52.566;13.346;2022-12-18T02:00:42;20.00;45.70
34776;DHT22;20989;52.566;13.346;2022-12-18T02:03:44;20.10;46.10
34776;DHT22;20989;52.566;13.346;2022-12-18T02:06:45;20.00;46.10
34776;DHT22;20989;52.566;13.346;2022-12-18T02:09:51;20.10;45.90
34776;DHT22;20989;52.566;13.346;2022-12-18T02:29:36;20.20;45.40
34776;DHT22;20989;52.566;13.346;2022-12-18T02:32:42;20.20;45.40
34776;DHT22;20989;52.566;13.346;2022-12-18T02:35:44;20.30;45.30
34776;DHT22;20989;52.566;13.346;2022-12-18T02:38:46;20.30;45.20
34776;DHT22;20989;52.566;13.346;2022-12-18T02:41:48;20.30;45.10
34776;DHT22;20989;52.566;13.346;2022-12-18T02:44:50;20.40;45.10
34776;DHT22;20989;52.566;13.346;2022-12-18T02:47:51;20.40;45.00
34776;DHT22;20989;52.566;13.346;2022-12-18T02:54:10;20.40;45.00
34776;DHT22;20989;52.566;13.346;2022-12-18T02:57:32;20.40;45.10
34776;DHT22;20989;52.566;13.346;2022-12-18T03:00:43;20.40;45.10
34776;DHT22;20989;52.566;13.346;2022-12-18T03:03:52;20.40;45.10
34776;DHT22;20989;52.566;13.346;2022-12-18T03:06:58;20.40;45.10
34776;DHT22;20989;52.566;13.346;2022-12-18T03:10:00;20.40;45.20
34776;DHT22;20989;52.566;13.346;2022-12-18T03:16:34;20.40;45.30
34776;DHT22;20989;52.566;13.346;2022-12-18T03:19:37;20.40;45.30
34776;DHT22;20989;52.566;13.346;2022-12-18T03:22:42;20.30;45.30
34776;DHT22;20989;52.566;13.346;2022-12-18T03:25:46;20.30;45.50
34776;DHT22;20989;52.566;13.346;2022-12-18T03:28:57;20.30;45.50
34776;DHT22;20989;52.566;13.346;2022-12-18T03:32:05;20.30;45.30
34776;DHT22;20989;52.566;13.346;2022-12-18T03:35:10;20.30;45.50
34776;DHT22;20989;52.566;13.346;2022-12-18T03:38:13;20.30;45.50
34776;DHT22;20989;52.566;13.346;2022-12-18T03:41:38;20.30;45.40
34776;DHT22;20989;52.566;13.346;2022-12-18T03:44:48;20.30;45.50
34776;DHT22;20989;52.566;13.346;2022-12-18T03:48:05;20.30;45.50
34776;DHT22;20989;52.566;13.346;2022-12-18T03:51:15;20.20;45.50
34776;DHT22;20989;52.566;13.346;2022-12-18T03:54:18;20.20;45.50
34776;DHT22;20989;52.566;13.346;2022-12-18T03:57:26;20.20;45.60
34776;DHT22;20989;52.566;13.346;2022-12-18T04:00:28;20.20;45.60
34776;DHT22;20989;52.566;13.346;2022-12-18T04:03:31;20.20;46.10
34776;DHT22;20989;52.566;13.346;2022-12-18T04:06:36;20.20;45.70
34776;DHT22;20989;52.566;13.346;2022-12-18T04:09:38;20.20;45.70
34776;DHT22;20989;52.566;13.346;2022-12-18T04:12:40;20.20;45.60
34776;DHT22;20989;52.566;13.346;2022-12-18T04:15:41;20.20;45.60
34776;DHT22;20989;52.566;13.346;2022-12-18T04:18:42;20.20;45.60
34776;DHT22;20989;52.566;13.346;2022-12-18T04:21:43;20.20;45.60
34776;DHT22;20989;52.566;13.346;2022-12-18T04:24:43;20.20;45.60
34776;DHT22;20989;52.566;13.346;2022-12-18T04:27:44;20.20;45.60
34776;DHT22;20989;52.566;13.346;2022-12-18T04:30:45;20.20;45.50
34776;DHT22;20989;52.566;13.346;2022-12-18T04:33:45;20.10;45.50
34776;DHT22;20989;52.566;13.346;2022-12-18T04:36:47;20.10;45.50
34776;DHT22;20989;52.566;13.346;2022-12-18T04:39:48;20.10;45.50
34776;DHT22;20989;52.566;13.346;2022-12-18T04:42:49;20.10;45.50
34776;DHT22;20989;52.566;13.346;2022-12-18T04:45:49;20.10;45.60
34776;DHT22;20989;52.566;13.346;2022-12-18T04:48:50;20.10;45.50
34776;DHT22;20989;52.566;13.346;2022-12-18T04:51:50;20.10;45.70
34776;DHT22;20989;52.566;13.346;2022-12-18T04:54:52;20.20;45.70
34776;DHT22;20989;52.566;13.346;2022-12-18T04:57:53;20.20;45.60
34776;DHT22;20989;52.566;13.346;2022-12-18T05:00:54;20.20;45.60
34776;DHT22;20989;52.566;13.346;2022-12-18T05:03:54;20.20;45.50
34776;DHT22;20989;52.566;13.346;2022-12-18T05:06:55;20.20;45.40
34776;DHT22;20989;52.566;13.346;2022-12-18T05:09:55;20.20;45.40
34776;DHT22;20989;52.566;13.346;2022-12-18T05:12:56;20.20;45.30
34776;DHT22;20989;52.566;13.346;2022-12-18T05:16:00;20.20;45.30
34776;DHT22;20989;52.566;13.346;2022-12-18T05:19:01;20.20;45.30
34776;DHT22;20989;52.566;13.346;2022-12-18T05:22:01;20.20;45.30
34776;DHT22;20989;52.566;13.346;2022-12-18T05:25:02;20.20;45.30
34776;DHT22;20989;52.566;13.346;2022-12-18T05:28:03;20.20;45.30
34776;DHT22;20989;52.566;13.346;2022-12-18T05:31:04;20.20;45.30
34776;DHT22;20989;52.566;13.346;2022-12-18T05:34:06;20.30;45.20
34776;DHT22;20989;52.566;13.346;2022-12-18T05:37:06;20.30;45.20
34776;DHT22;20989;52.566;13.346;2022-12-18T05:40:07;20.30;45.10
34776;DHT22;20989;52.566;13.346;2022-12-18T05:43:08;20.30;45.00
34776;DHT22;20989;52.566;13.346;2022-12-18T05:46:15;20.30;45.10
34776;DHT22;20989;52.566;13.346;2022-12-18T05:49:16;20.30;45.10
34776;DHT22;20989;52.566;13.346;2022-12-18T05:52:16;20.30;45.00
34776;DHT22;20989;52.566;13.346;2022-12-18T05:55:17;20.30;45.10
34776;DHT22;20989;52.566;13.346;2022-12-18T05:58:18;20.30;45.00
34776;DHT22;20989;52.566;13.346;2022-12-18T06:01:22;20.30;45.10
34776;DHT22;20989;52.566;13.346;2022-12-18T06:04:23;20.30;45.10
34776;DHT22;20989;52.566;13.346;2022-12-18T06:07:24;20.30;45.00
34776;DHT22;20989;52.566;13.346;2022-12-18T06:10:25;20.40;45.00
34776;DHT22;20989;52.566;13.346;2022-12-18T06:13:25;20.30;45.00
34776;DHT22;20989;52.566;13.346;2022-12-18T06:16:27;20.40;45.00
34776;DHT22;20989;52.566;13.346;2022-12-18T06:19:28;20.30;45.00
34776;DHT22;20989;52.566;13.346;2022-12-18T06:22:31;20.30;45.00
34776;DHT22;20989;52.566;13.346;2022-12-18T06:25:32;20.30;45.00
34776;DHT22;20989;52.566;13.346;2022-12-18T06:28:33;20.30;45.10
34776;DHT22;20989;52.566;13.346;2022-12-18T06:31:34;20.40;45.10
34776;DHT22;20989;52.566;13.346;2022-12-18T06:34:37;20.30;45.00
34776;DHT22;20989;52.566;13.346;2022-12-18T06:37:37;20.30;45.10
34776;DHT22;20989;52.566;13.346;2022-12-18T06:40:38;20.30;45.10
34776;DHT22;20989;52.566;13.346;2022-12-18T06:43:39;20.30;45.00
34776;DHT22;20989;52.566;13.346;2022-12-18T06:46:40;20.30;45.00
34776;DHT22;20989;52.566;13.346;2022-12-18T06:49:41;20.30;45.00
34776;DHT22;20989;52.566;13.346;2022-12-18T06:52:41;20.30;45.00
34776;DHT22;20989;52.566;13.346;2022-12-18T06:55:44;20.30;45.10
34776;DHT22;20989;52.566;13.346;2022-12-18T06:58:44;20.30;45.00
34776;DHT22;20989;52.566;13.346;2022-12-18T07:01:45;20.30;45.10
34776;DHT22;20989;52.566;13.346;2022-12-18T07:04:46;20.30;45.10
34776;DHT22;20989;52.566;13.346;2022-12-18T07:07:46;20.30;45.10
34776;DHT22;20989;52.566;13.346;2022-12-18T07:10:47;20.20;45.00
34776;DHT22;20989;52.566;13.346;2022-12-18T07:13:49;20.30;45.10
34776;DHT22;20989;52.566;13.346;2022-12-18T07:16:50;20.30;45.10
34776;DHT22;20989;52.566;13.346;2022-12-18T07:19:50;20.30;45.10
34776;DHT22;20989;52.566;13.346;2022-12-18T07:22:51;20.30;45.20
34776;DHT22;20989;52.566;13.346;2022-12-18T07:25:52;20.30;45.10
34776;DHT22;20989;52.566;13.346;2022-12-18T07:28:55;20.30;45.10
34776;DHT22;20989;52.566;13.346;2022-12-18T07:31:57;20.20;45.00
34776;DHT22;20989;52.566;13.346;2022-12-18T07:34:58;20.20;45.10
34776;DHT22;20989;52.566;13.346;2022-12-18T07:37:59;20.30;45.10
34776;DHT22;20989;52.566;13.346;2022-12-18T07:41:08;20.30;45.00
34776;DHT22;20989;52.566;13.346;2022-12-18T07:44:12;20.20;45.00
34776;DHT22;20989;52.566;13.346;2022-12-18T07:47:13;20.30;45.20
34776;DHT22;20989;52.566;13.346;2022-12-18T07:50:14;20.30;45.10
34776;DHT22;20989;52.566;13.346;2022-12-18T07:53:14;20.30;45.10
34776;DHT22;20989;52.566;13.346;2022-12-18T07:56:15;20.30;45.10
34776;DHT22;20989;52.566;13.346;2022-12-18T07:59:16;20.30;45.10
34776;DHT22;20989;52.566;13.346;2022-12-18T08:02:17;20.20;45.00
34776;DHT22;20989;52.566;13.346;2022-12-18T08:05:18;20.30;45.00
34776;DHT22;20989;52.566;13.346;2022-12-18T08:08:19;20.30;45.00
34776;DHT22;20989;52.566;13.346;2022-12-18T08:11:19;20.30;45.00
34776;DHT22;20989;52.566;13.346;2022-12-18T08:14:20;20.30;45.00
34776;DHT22;20989;52.566;13.346;2022-12-18T08:17:21;20.30;45.10
34776;DHT22;20989;52.566;13.346;2022-12-18T08:20:21;20.30;45.10
34776;DHT22;20989;52.566;13.346;2022-12-18T08:23:22;20.30;45.10
34776;DHT22;20989;52.566;13.346;2022-12-18T08:26:26;20.30;45.20
34776;DHT22;20989;52.566;13.346;2022-12-18T08:29:27;20.30;45.10
34776;DHT22;20989;52.566;13.346;2022-12-18T08:32:28;20.30;45.10
34776;DHT22;20989;52.566;13.346;2022-12-18T08:35:28;20.30;45.10
34776;DHT22;20989;52.566;13.346;2022-12-18T08:38:29;20.30;45.10
34776;DHT22;20989;52.566;13.346;2022-12-18T08:41:30;20.30;45.10
34776;DHT22;20989;52.566;13.346;2022-12-18T08:44:30;20.30;45.20
34776;DHT22;20989;52.566;13.346;2022-12-18T08:47:37;20.20;45.00
34776;DHT22;20989;52.566;13.346;2022-12-18T08:50:38;20.30;45.10
34776;DHT22;20989;52.566;13.346;2022-12-18T08:53:39;20.20;45.10
34776;DHT22;20989;52.566;13.346;2022-12-18T08:56:39;20.20;45.00
34776;DHT22;20989;52.566;13.346;2022-12-18T08:59:40;20.20;45.10
34776;DHT22;20989;52.566;13.346;2022-12-18T09:02:41;20.20;45.10
34776;DHT22;20989;52.566;13.346;2022-12-18T09:05:41;20.20;45.20
34776;DHT22;20989;52.566;13.346;2022-12-18T09:08:43;20.20;45.10
34776;DHT22;20989;52.566;13.346;2022-12-18T09:11:44;20.20;45.10
34776;DHT22;20989;52.566;13.346;2022-12-18T09:14:45;20.20;45.10
34776;DHT22;20989;52.566;13.346;2022-12-18T09:17:45;20.20;45.30
34776;DHT22;20989;52.566;13.346;2022-12-18T09:20:47;20.20;45.00
34776;DHT22;20989;52.566;13.346;2022-12-18T09:23:51;20.30;45.20
34776;DHT22;20989;52.566;13.346;2022-12-18T09:26:55;20.20;45.30
34776;DHT22;20989;52.566;13.346;2022-12-18T09:29:55;20.20;45.20
34776;DHT22;20989;52.566;13.346;2022-12-18T09:32:56;20.20;45.10
34776;DHT22;20989;52.566;13.346;2022-12-18T09:35:57;20.20;45.00
34776;DHT22;20989;52.566;13.346;2022-12-18T09:38:57;20.20;45.10
34776;DHT22;20989;52.566;13.346;2022-12-18T09:41:58;20.30;45.20
34776;DHT22;20989;52.566;13.346;2022-12-18T09:45:00;20.40;44.70
34776;DHT22;20989;52.566;13.346;2022-12-18T09:48:01;20.40;44.80
34776;DHT22;20989;52.566;13.346;2022-12-18T09:51:22;20.50;44.80
34776;DHT22;20989;52.566;13.346;2022-12-18T09:54:32;20.60;45.10
34776;DHT22;20989;52.566;13.346;2022-12-18T09:57:35;20.70;44.10
34776;DHT22;20989;52.566;13.346;2022-12-18T10:00:42;20.70;44.10
34776;DHT22;20989;52.566;13.346;2022-12-18T10:03:43;20.80;45.40
34776;DHT22;20989;52.566;13.346;2022-12-18T10:10:02;20.70;45.10
34776;DHT22;20989;52.566;13.346;2022-12-18T10:23:04;20.70;44.90
34776;DHT22;20989;52.566;13.346;2022-12-18T10:26:10;20.60;44.80
34776;DHT22;20989;52.566;13.346;2022-12-18T10:29:12;20.60;45.00
34776;DHT22;20989;52.566;13.346;2022-12-18T10:32:22;20.60;44.90
34776;DHT22;20989;52.566;13.346;2022-12-18T10:35:26;20.50;44.90
34776;DHT22;20989;52.566;13.346;2022-12-18T10:38:29;20.50;44.90
34776;DHT22;20989;52.566;13.346;2022-12-18T10:41:30;20.50;44.90
34776;DHT22;20989;52.566;13.346;2022-12-18T10:44:32;20.50;45.00
34776;DHT22;20989;52.566;13.346;2022-12-18T10:47:33;20.40;45.10
34776;DHT22;20989;52.566;13.346;2022-12-18T10:50:36;20.40;44.90
34776;DHT22;20989;52.566;13.346;2022-12-18T10:53:37;20.40;45.00
34776;DHT22;20989;52.566;13.346;2022-12-18T10:56:40;20.40;45.10
34776;DHT22;20989;52.566;13.346;2022-12-18T10:59:51;20.40;45.00
34776;DHT22;20989;52.566;13.346;2022-12-18T11:02:52;20.30;45.00
34776;DHT22;20989;52.566;13.346;2022-12-18T11:06:02;20.30;45.20
34776;DHT22;20989;52.566;13.346;2022-12-18T11:09:18;20.30;45.10
34776;DHT22;20989;52.566;13.346;2022-12-18T11:12:22;20.30;45.10
34776;DHT22;20989;52.566;13.346;2022-12-18T11:15:27;20.20;45.30
34776;DHT22;20989;52.566;13.346;2022-12-18T11:18:33;20.40;44.70
34776;DHT22;20989;52.566;13.346;2022-12-18T11:21:39;20.50;44.20
34776;DHT22;20989;52.566;13.346;2022-12-18T11:24:41;20.50;44.80
34776;DHT22;20989;52.566;13.346;2022-12-18T11:27:51;20.70;44.50
34776;DHT22;20989;52.566;13.346;2022-12-18T11:31:24;20.70;45.50
34776;DHT22;20989;52.566;13.346;2022-12-18T11:34:30;20.70;44.90
34776;DHT22;20989;52.566;13.346;2022-12-18T11:37:32;20.80;46.10
34776;DHT22;20989;52.566;13.346;2022-12-18T11:40:36;20.80;45.00
34776;DHT22;20989;52.566;13.346;2022-12-18T11:43:43;20.80;45.00
34776;DHT22;20989;52.566;13.346;2022-12-18T11:46:52;20.80;45.00
34776;DHT22;20989;52.566;13.346;2022-12-18T11:50:01;20.90;44.90
34776;DHT22;20989;52.566;13.346;2022-12-18T11:53:01;20.90;44.70
34776;DHT22;20989;52.566;13.346;2022-12-18T12:06:40;20.80;44.90
34776;DHT22;20989;52.566;13.346;2022-12-18T12:16:45;20.90;45.40
34776;DHT22;20989;52.566;13.346;2022-12-18T12:26:33;20.90;45.40
34776;DHT22;20989;52.566;13.346;2022-12-18T12:29:46;20.90;45.20
34776;DHT22;20989;52.566;13.346;2022-12-18T12:33:00;20.90;45.30
34776;DHT22;20989;52.566;13.346;2022-12-18T12:36:18;20.90;46.50
34776;DHT22;20989;52.566;13.346;2022-12-18T12:46:59;20.90;46.10
34776;DHT22;20989;52.566;13.346;2022-12-18T12:50:03;20.80;45.90
34776;DHT22;20989;52.566;13.346;2022-12-18T12:53:08;20.80;46.10
34776;DHT22;20989;52.566;13.346;2022-12-18T12:56:11;20.80;46.30
34776;DHT22;20989;52.566;13.346;2022-12-18T13:05:53;20.80;46.50
34776;DHT22;20989;52.566;13.346;2022-12-18T13:08:59;20.80;46.40
34776;DHT22;20989;52.566;13.346;2022-12-18T13:15:40;20.80;46.30
34776;DHT22;20989;52.566;13.346;2022-12-18T13:18:51;20.70;46.50
34776;DHT22;20989;52.566;13.346;2022-12-18T13:21:54;20.80;46.60
34776;DHT22;20989;52.566;13.346;2022-12-18T13:24:56;20.80;47.00
34776;DHT22;20989;52.566;13.346;2022-12-18T13:31:02;20.80;46.40
34776;DHT22;20989;52.566;13.346;2022-12-18T13:34:23;20.90;46.80
34776;DHT22;20989;52.566;13.346;2022-12-18T13:37:44;20.90;46.50
34776;DHT22;20989;52.566;13.346;2022-12-18T13:40:55;20.90;46.00
34776;DHT22;20989;52.566;13.346;2022-12-18T13:43:57;20.80;45.90
34776;DHT22;20989;52.566;13.346;2022-12-18T13:47:33;20.80;45.80
34776;DHT22;20989;52.566;13.346;2022-12-18T13:50:35;20.90;46.10
34776;DHT22;20989;52.566;13.346;2022-12-18T13:53:50;20.80;43.90
34776;DHT22;20989;52.566;13.346;2022-12-18T13:56:51;20.80;44.20
34776;DHT22;20989;52.566;13.346;2022-12-18T13:59:52;20.80;45.40
34776;DHT22;20989;52.566;13.346;2022-12-18T14:02:52;20.80;45.40
34776;DHT22;20989;52.566;13.346;2022-12-18T14:05:56;20.80;45.50
34776;DHT22;20989;52.566;13.346;2022-12-18T14:08:56;20.70;45.70
34776;DHT22;20989;52.566;13.346;2022-12-18T14:11:57;20.80;45.80
34776;DHT22;20989;52.566;13.346;2022-12-18T14:21:34;20.90;45.60
34776;DHT22;20989;52.566;13.346;2022-12-18T14:24:35;20.90;45.10
34776;DHT22;20989;52.566;13.346;2022-12-18T14:27:41;20.80;45.10
34776;DHT22;20989;52.566;13.346;2022-12-18T14:30:44;20.80;44.70
34776;DHT22;20989;52.566;13.346;2022-12-18T14:33:45;20.70;44.50
34776;DHT22;20989;52.566;13.346;2022-12-18T14:36:53;20.70;44.40
34776;DHT22;20989;52.566;13.346;2022-12-18T14:40:13;20.70;44.50
34776;DHT22;20989;52.566;13.346;2022-12-18T14:43:14;20.70;45.30
34776;DHT22;20989;52.566;13.346;2022-12-18T14:49:33;20.70;45.30
34776;DHT22;20989;52.566;13.346;2022-12-18T14:52:34;20.80;45.40
34776;DHT22;20989;52.566;13.346;2022-12-18T14:55:35;20.80;45.70
34776;DHT22;20989;52.566;13.346;2022-12-18T14:58:37;20.80;45.40
34776;DHT22;20989;52.566;13.346;2022-12-18T15:01:44;20.80;45.00
34776;DHT22;20989;52.566;13.346;2022-12-18T15:04:46;20.70;44.60
34776;DHT22;20989;52.566;13.346;2022-12-18T15:07:49;20.70;44.30
34776;DHT22;20989;52.566;13.346;2022-12-18T15:10:50;20.60;43.90
34776;DHT22;20989;52.566;13.346;2022-12-18T15:13:51;20.70;44.10
34776;DHT22;20989;52.566;13.346;2022-12-18T15:16:55;20.70;44.40
34776;DHT22;20989;52.566;13.346;2022-12-18T15:20:07;20.70;43.40
34776;DHT22;20989;52.566;13.346;2022-12-18T15:23:29;20.60;43.70
34776;DHT22;20989;52.566;13.346;2022-12-18T15:26:37;20.60;43.80
34776;DHT22;20989;52.566;13.346;2022-12-18T15:29:38;20.70;44.00
34776;DHT22;20989;52.566;13.346;2022-12-18T15:32:42;20.80;44.40
34776;DHT22;20989;52.566;13.346;2022-12-18T15:35:43;20.80;44.30
34776;DHT22;20989;52.566;13.346;2022-12-18T15:38:48;20.80;44.50
34776;DHT22;20989;52.566;13.346;2022-12-18T15:41:49;20.70;44.60
34776;DHT22;20989;52.566;13.346;2022-12-18T15:45:12;20.80;44.70
34776;DHT22;20989;52.566;13.346;2022-12-18T15:48:23;20.70;44.80
34776;DHT22;20989;52.566;13.346;2022-12-18T15:51:27;20.60;44.50
34776;DHT22;20989;52.566;13.346;2022-12-18T15:54:28;20.70;44.20
34776;DHT22;20989;52.566;13.346;2022-12-18T15:57:48;20.60;43.90
34776;DHT22;20989;52.566;13.346;2022-12-18T16:00:48;20.60;43.70
34776;DHT22;20989;52.566;13.346;2022-12-18T16:03:49;20.60;43.50
34776;DHT22;20989;52.566;13.346;2022-12-18T16:06:50;20.60;43.20
34776;DHT22;20989;52.566;13.346;2022-12-18T16:09:52;20.60;43.10
34776;DHT22;20989;52.566;13.346;2022-12-18T16:12:52;20.60;43.60
34776;DHT22;20989;52.566;13.346;2022-12-18T16:15:53;20.60;43.60
34776;DHT22;20989;52.566;13.346;2022-12-18T16:18:54;20.60;43.30
34776;DHT22;20989;52.566;13.346;2022-12-18T16:21:56;20.60;43.20
34776;DHT22;20989;52.566;13.346;2022-12-18T16:24:57;20.50;43.20
34776;DHT22;20989;52.566;13.346;2022-12-18T16:27:58;20.60;43.30
34776;DHT22;20989;52.566;13.346;2022-12-18T16:30:59;20.50;42.00
34776;DHT22;20989;52.566;13.346;2022-12-18T16:34:25;20.60;42.30
34776;DHT22;20989;52.566;13.346;2022-12-18T16:37:30;20.50;42.60
34776;DHT22;20989;52.566;13.346;2022-12-18T16:40:31;20.50;42.10
34776;DHT22;20989;52.566;13.346;2022-12-18T16:43:32;20.60;42.00
34776;DHT22;20989;52.566;13.346;2022-12-18T16:46:33;20.50;41.90
34776;DHT22;20989;52.566;13.346;2022-12-18T16:49:34;20.50;41.50
34776;DHT22;20989;52.566;13.346;2022-12-18T16:52:35;20.50;41.80
34776;DHT22;20989;52.566;13.346;2022-12-18T16:55:36;20.50;41.70
34776;DHT22;20989;52.566;13.346;2022-12-18T16:58:36;20.50;41.50
34776;DHT22;20989;52.566;13.346;2022-12-18T17:01:37;20.50;41.50
34776;DHT22;20989;52.566;13.346;2022-12-18T17:04:38;20.60;41.40
34776;DHT22;20989;52.566;13.346;2022-12-18T17:07:39;20.50;41.10
34776;DHT22;20989;52.566;13.346;2022-12-18T17:10:39;20.50;41.00
34776;DHT22;20989;52.566;13.346;2022-12-18T17:13:40;20.50;41.00
34776;DHT22;20989;52.566;13.346;2022-12-18T17:16:41;20.50;41.40
34776;DHT22;20989;52.566;13.346;2022-12-18T17:19:42;20.60;41.30
34776;DHT22;20989;52.566;13.346;2022-12-18T17:22:42;20.70;41.10
34776;DHT22;20989;52.566;13.346;2022-12-18T17:25:43;20.90;41.00
34776;DHT22;20989;52.566;13.346;2022-12-18T17:28:44;21.00;40.50
34776;DHT22;20989;52.566;13.346;2022-12-18T17:31:45;21.10;40.30
34776;DHT22;20989;52.566;13.346;2022-12-18T17:34:46;21.30;40.40
34776;DHT22;20989;52.566;13.346;2022-12-18T17:37:47;21.40;40.30
34776;DHT22;20989;52.566;13.346;2022-12-18T17:40:48;21.40;39.90
34776;DHT22;20989;52.566;13.346;2022-12-18T17:44:00;21.40;39.60
34776;DHT22;20989;52.566;13.346;2022-12-18T17:47:01;21.50;39.50
34776;DHT22;20989;52.566;13.346;2022-12-18T17:50:02;21.50;39.40
34776;DHT22;20989;52.566;13.346;2022-12-18T17:53:04;21.60;39.10
34776;DHT22;20989;52.566;13.346;2022-12-18T17:56:05;21.70;39.70
34776;DHT22;20989;52.566;13.346;2022-12-18T17:59:06;21.80;39.20
34776;DHT22;20989;52.566;13.346;2022-12-18T18:02:09;21.70;39.00
34776;DHT22;20989;52.566;13.346;2022-12-18T18:05:11;21.70;39.00
34776;DHT22;20989;52.566;13.346;2022-12-18T18:08:12;21.80;38.90
34776;DHT22;20989;52.566;13.346;2022-12-18T18:11:15;21.80;38.70
34776;DHT22;20989;52.566;13.346;2022-12-18T18:14:35;21.80;38.50
34776;DHT22;20989;52.566;13.346;2022-12-18T18:17:35;21.80;38.20
34776;DHT22;20989;52.566;13.346;2022-12-18T18:20:39;21.80;38.20
34776;DHT22;20989;52.566;13.346;2022-12-18T18:23:40;21.80;38.10
34776;DHT22;20989;52.566;13.346;2022-12-18T18:26:41;21.70;38.20
34776;DHT22;20989;52.566;13.346;2022-12-18T18:29:42;21.70;38.10
34776;DHT22;20989;52.566;13.346;2022-12-18T18:32:42;21.70;38.00
34776;DHT22;20989;52.566;13.346;2022-12-18T18:35:43;21.70;38.30
34776;DHT22;20989;52.566;13.346;2022-12-18T18:38:45;21.70;38.20
34776;DHT22;20989;52.566;13.346;2022-12-18T18:41:46;21.60;38.10
34776;DHT22;20989;52.566;13.346;2022-12-18T18:44:48;21.60;38.30
34776;DHT22;20989;52.566;13.346;2022-12-18T18:47:48;21.60;38.00
34776;DHT22;20989;52.566;13.346;2022-12-18T18:50:57;21.50;38.00
34776;DHT22;20989;52.566;13.346;2022-12-18T18:53:58;21.60;38.30
34776;DHT22;20989;52.566;13.346;2022-12-18T18:56:59;21.50;38.00
34776;DHT22;20989;52.566;13.346;2022-12-18T19:00:00;21.50;38.10
34776;DHT22;20989;52.566;13.346;2022-12-18T19:03:00;21.40;38.10
34776;DHT22;20989;52.566;13.346;2022-12-18T19:06:01;21.40;38.00
34776;DHT22;20989;52.566;13.346;2022-12-18T19:09:03;21.50;38.10
34776;DHT22;20989;52.566;13.346;2022-12-18T19:12:04;21.40;38.00
34776;DHT22;20989;52.566;13.346;2022-12-18T19:15:23;21.40;38.00
34776;DHT22;20989;52.566;13.346;2022-12-18T19:18:24;21.40;37.60
34776;DHT22;20989;52.566;13.346;2022-12-18T19:21:26;21.40;37.80
34776;DHT22;20989;52.566;13.346;2022-12-18T19:24:27;21.40;38.00
34776;DHT22;20989;52.566;13.346;2022-12-18T19:27:27;21.40;38.10
34776;DHT22;20989;52.566;13.346;2022-12-18T19:30:28;21.40;38.00
34776;DHT22;20989;52.566;13.346;2022-12-18T19:33:30;21.40;38.20
34776;DHT22;20989;52.566;13.346;2022-12-18T19:36:33;21.50;37.90
34776;DHT22;20989;52.566;13.346;2022-12-18T19:39:34;21.50;38.80
34776;DHT22;20989;52.566;13.346;2022-12-18T19:42:34;21.50;38.00
34776;DHT22;20989;52.566;13.346;2022-12-18T19:45:35;21.50;38.00
34776;DHT22;20989;52.566;13.346;2022-12-18T19:48:36;21.40;37.90
34776;DHT22;20989;52.566;13.346;2022-12-18T19:51:37;21.40;37.70
34776;DHT22;20989;52.566;13.346;2022-12-18T19:54:37;21.30;37.30
34776;DHT22;20989;52.566;13.346;2022-12-18T19:57:38;21.30;37.70
34776;DHT22;20989;52.566;13.346;2022-12-18T20:00:39;21.30;37.90
34776;DHT22;20989;52.566;13.346;2022-12-18T20:03:40;21.30;38.00
34776;DHT22;20989;52.566;13.346;2022-12-18T20:06:52;21.30;37.80
34776;DHT22;20989;52.566;13.346;2022-12-18T20:09:52;21.20;38.00
34776;DHT22;20989;52.566;13.346;2022-12-18T20:12:53;21.20;38.40
34776;DHT22;20989;52.566;13.346;2022-12-18T20:15:54;21.20;38.80
34776;DHT22;20989;52.566;13.346;2022-12-18T20:18:55;21.10;38.90
34776;DHT22;20989;52.566;13.346;2022-12-18T20:21:56;21.10;39.20
34776;DHT22;20989;52.566;13.346;2022-12-18T20:24:56;21.10;39.50
34776;DHT22;20989;52.566;13.346;2022-12-18T20:27:57;21.00;39.60
34776;DHT22;20989;52.566;13.346;2022-12-18T20:31:03;21.00;39.70